sensor_id;sensor_type;location;lat;lon;timestamp;P1;durP1;ratioP1;P2;durP2;ratioP2
46230;SDS011;31949;51.404;-0.038;2023-07-31T00:00:05;9.50;;;4.35;;
46230;SDS011;31949;51.404;-0.038;2023-07-31T00:02:32;13.00;;;4.80;;
46230;SDS011;31949;51.404;-0.038;2023-07-31T00:05:00;7.20;;;3.53;;
46230;SDS011;31949;51.404;-0.038;2023-07-31T00:07:28;13.00;;;4.70;;
46230;SDS011;31949;51.404;-0.038;2023-07-31T00:09:55;9.32;;;4.10;;
46230;SDS011;31949;51.404;-0.038;2023-07-31T00:12:23;7.72;;;3.78;;
46230;SDS011;31949;51.404;-0.038;2023-07-31T00:14:50;6.90;;;3.75;;
46230;SDS011;31949;51.404;-0.038;2023-07-31T00:17:17;9.48;;;4.18;;
46230;SDS011;31949;51.404;-0.038;2023-07-31T00:19:45;8.25;;;3.83;;
46230;SDS011;31949;51.404;-0.038;2023-07-31T00:22:17;5.93;;;3.75;;
46230;SDS011;31949;51.404;-0.038;2023-07-31T00:24:44;6.88;;;3.25;;
46230;SDS011;31949;51.404;-0.038;2023-07-31T00:27:11;5.75;;;2.63;;
46230;SDS011;31949;51.404;-0.038;2023-07-31T00:29:38;5.00;;;2.72;;
46230;SDS011;31949;51.404;-0.038;2023-07-31T00:32:06;5.25;;;2.47;;
46230;SDS011;31949;51.404;-0.038;2023-07-31T00:34:35;4.50;;;2.13;;
46230;SDS011;31949;51.404;-0.038;2023-07-31T00:37:03;5.60;;;2.10;;
46230;SDS011;31949;51.404;-0.038;2023-07-31T00:39:33;5.90;;;2.58;;
46230;SDS011;31949;51.404;-0.038;2023-07-31T00:42:01;5.45;;;2.00;;
46230;SDS011;31949;51.404;-0.038;2023-07-31T00:44:29;4.95;;;2.47;;
46230;SDS011;31949;51.404;-0.038;2023-07-31T00:46:57;5.20;;;2.42;;
46230;SDS011;31949;51.404;-0.038;2023-07-31T00:49:26;5.95;;;2.17;;
46230;SDS011;31949;51.404;-0.038;2023-07-31T00:51:54;3.83;;;1.67;;
46230;SDS011;31949;51.404;-0.038;2023-07-31T00:54:24;1.60;;;1.30;;
46230;SDS011;31949;51.404;-0.038;2023-07-31T00:56:52;2.28;;;1.48;;
46230;SDS011;31949;51.404;-0.038;2023-07-31T00:59:21;2.78;;;1.42;;
46230;SDS011;31949;51.404;-0.038;2023-07-31T01:01:48;2.20;;;1.38;;
46230;SDS011;31949;51.404;-0.038;2023-07-31T01:04:17;1.83;;;1.10;;
46230;SDS011;31949;51.404;-0.038;2023-07-31T01:07:01;2.17;;;1.30;;
46230;SDS011;31949;51.404;-0.038;2023-07-31T01:09:44;1.33;;;1.08;;
46230;SDS011;31949;51.404;-0.038;2023-07-31T01:12:15;2.03;;;1.00;;
46230;SDS011;31949;51.404;-0.038;2023-07-31T01:15:17;2.92;;;1.20;;
46230;SDS011;31949;51.404;-0.038;2023-07-31T01:17:41;1.92;;;0.95;;
46230;SDS011;31949;51.404;-0.038;2023-07-31T01:20:21;1.17;;;1.08;;
46230;SDS011;31949;51.404;-0.038;2023-07-31T01:25:56;1.90;;;1.20;;
46230;SDS011;31949;51.404;-0.038;2023-07-31T01:31:18;0.95;;;0.63;;
46230;SDS011;31949;51.404;-0.038;2023-07-31T01:33:53;2.80;;;0.98;;
46230;SDS011;31949;51.404;-0.038;2023-07-31T01:36:23;1.48;;;0.70;;
46230;SDS011;31949;51.404;-0.038;2023-07-31T01:38:50;1.73;;;0.70;;
46230;SDS011;31949;51.404;-0.038;2023-07-31T01:41:18;0.95;;;0.57;;
46230;SDS011;31949;51.404;-0.038;2023-07-31T01:43:45;0.80;;;0.57;;
46230;SDS011;31949;51.404;-0.038;2023-07-31T01:46:13;1.70;;;0.70;;
46230;SDS011;31949;51.404;-0.038;2023-07-31T01:48:40;2.35;;;1.00;;
46230;SDS011;31949;51.404;-0.038;2023-07-31T01:51:07;1.88;;;1.05;;
46230;SDS011;31949;51.404;-0.038;2023-07-31T01:53:35;1.75;;;0.90;;
46230;SDS011;31949;51.404;-0.038;2023-07-31T01:56:02;2.72;;;1.02;;
46230;SDS011;31949;51.404;-0.038;2023-07-31T01:58:30;3.30;;;1.35;;
46230;SDS011;31949;51.404;-0.038;2023-07-31T02:00:58;1.95;;;1.20;;
46230;SDS011;31949;51.404;-0.038;2023-07-31T02:03:25;2.28;;;1.27;;
46230;SDS011;31949;51.404;-0.038;2023-07-31T02:05:53;2.85;;;1.30;;
46230;SDS011;31949;51.404;-0.038;2023-07-31T02:08:21;2.20;;;1.25;;
46230;SDS011;31949;51.404;-0.038;2023-07-31T02:10:48;1.20;;;1.00;;
46230;SDS011;31949;51.404;-0.038;2023-07-31T02:13:15;1.73;;;1.23;;
46230;SDS011;31949;51.404;-0.038;2023-07-31T02:15:42;1.15;;;0.82;;
46230;SDS011;31949;51.404;-0.038;2023-07-31T02:18:10;2.28;;;1.23;;
46230;SDS011;31949;51.404;-0.038;2023-07-31T02:20:37;1.98;;;1.20;;
46230;SDS011;31949;51.404;-0.038;2023-07-31T02:23:04;1.88;;;1.10;;
46230;SDS011;31949;51.404;-0.038;2023-07-31T02:25:31;2.03;;;1.00;;
46230;SDS011;31949;51.404;-0.038;2023-07-31T02:27:58;1.98;;;1.10;;
46230;SDS011;31949;51.404;-0.038;2023-07-31T02:30:26;1.55;;;0.95;;
46230;SDS011;31949;51.404;-0.038;2023-07-31T02:32:53;2.13;;;1.08;;
46230;SDS011;31949;51.404;-0.038;2023-07-31T02:35:20;2.90;;;1.25;;
46230;SDS011;31949;51.404;-0.038;2023-07-31T02:37:48;2.47;;;1.35;;
46230;SDS011;31949;51.404;-0.038;2023-07-31T02:40:15;2.22;;;1.27;;
46230;SDS011;31949;51.404;-0.038;2023-07-31T02:42:42;2.65;;;0.98;;
46230;SDS011;31949;51.404;-0.038;2023-07-31T02:45:11;3.80;;;1.10;;
46230;SDS011;31949;51.404;-0.038;2023-07-31T02:47:38;1.90;;;0.90;;
46230;SDS011;31949;51.404;-0.038;2023-07-31T02:50:05;1.55;;;0.90;;
46230;SDS011;31949;51.404;-0.038;2023-07-31T02:52:33;2.97;;;0.98;;
46230;SDS011;31949;51.404;-0.038;2023-07-31T02:55:00;2.38;;;1.08;;
46230;SDS011;31949;51.404;-0.038;2023-07-31T02:57:28;1.50;;;0.82;;
46230;SDS011;31949;51.404;-0.038;2023-07-31T02:59:55;1.92;;;1.05;;
46230;SDS011;31949;51.404;-0.038;2023-07-31T03:02:22;1.55;;;1.20;;
46230;SDS011;31949;51.404;-0.038;2023-07-31T03:04:49;3.53;;;1.05;;
46230;SDS011;31949;51.404;-0.038;2023-07-31T03:07:17;1.95;;;1.40;;
46230;SDS011;31949;51.404;-0.038;2023-07-31T03:09:44;1.48;;;1.00;;
46230;SDS011;31949;51.404;-0.038;2023-07-31T03:12:11;1.73;;;0.93;;
46230;SDS011;31949;51.404;-0.038;2023-07-31T03:14:38;2.88;;;1.10;;
46230;SDS011;31949;51.404;-0.038;2023-07-31T03:17:06;1.60;;;1.00;;
46230;SDS011;31949;51.404;-0.038;2023-07-31T03:19:33;1.42;;;1.10;;
46230;SDS011;31949;51.404;-0.038;2023-07-31T03:22:00;2.63;;;0.98;;
46230;SDS011;31949;51.404;-0.038;2023-07-31T03:24:28;2.47;;;1.17;;
46230;SDS011;31949;51.404;-0.038;2023-07-31T03:26:56;2.08;;;1.10;;
46230;SDS011;31949;51.404;-0.038;2023-07-31T03:29:23;1.45;;;0.68;;
46230;SDS011;31949;51.404;-0.038;2023-07-31T03:31:51;1.40;;;1.02;;
46230;SDS011;31949;51.404;-0.038;2023-07-31T03:34:19;3.03;;;1.27;;
46230;SDS011;31949;51.404;-0.038;2023-07-31T03:36:46;1.73;;;0.60;;
46230;SDS011;31949;51.404;-0.038;2023-07-31T03:39:13;2.78;;;0.80;;
46230;SDS011;31949;51.404;-0.038;2023-07-31T03:41:40;0.90;;;0.80;;
46230;SDS011;31949;51.404;-0.038;2023-07-31T03:44:07;1.42;;;1.00;;
46230;SDS011;31949;51.404;-0.038;2023-07-31T03:46:35;1.33;;;1.02;;
46230;SDS011;31949;51.404;-0.038;2023-07-31T03:49:03;2.20;;;0.80;;
46230;SDS011;31949;51.404;-0.038;2023-07-31T03:51:30;1.08;;;0.47;;
46230;SDS011;31949;51.404;-0.038;2023-07-31T03:53:58;1.05;;;0.70;;
46230;SDS011;31949;51.404;-0.038;2023-07-31T03:56:25;1.83;;;0.77;;
46230;SDS011;31949;51.404;-0.038;2023-07-31T03:58:52;1.45;;;0.60;;
46230;SDS011;31949;51.404;-0.038;2023-07-31T04:01:19;2.45;;;0.88;;
46230;SDS011;31949;51.404;-0.038;2023-07-31T04:03:47;2.22;;;0.88;;
46230;SDS011;31949;51.404;-0.038;2023-07-31T04:06:14;0.50;;;0.30;;
46230;SDS011;31949;51.404;-0.038;2023-07-31T04:08:44;2.83;;;0.65;;
46230;SDS011;31949;51.404;-0.038;2023-07-31T04:11:12;1.15;;;0.60;;
46230;SDS011;31949;51.404;-0.038;2023-07-31T04:13:39;2.15;;;0.80;;
46230;SDS011;31949;51.404;-0.038;2023-07-31T04:16:06;3.40;;;0.68;;
46230;SDS011;31949;51.404;-0.038;2023-07-31T04:18:33;1.17;;;0.90;;
46230;SDS011;31949;51.404;-0.038;2023-07-31T04:21:00;1.80;;;1.17;;
46230;SDS011;31949;51.404;-0.038;2023-07-31T04:23:29;1.73;;;0.70;;
46230;SDS011;31949;51.404;-0.038;2023-07-31T04:25:56;1.33;;;0.60;;
46230;SDS011;31949;51.404;-0.038;2023-07-31T04:28:23;1.58;;;0.57;;
46230;SDS011;31949;51.404;-0.038;2023-07-31T04:30:52;1.27;;;0.80;;
46230;SDS011;31949;51.404;-0.038;2023-07-31T04:33:20;2.03;;;0.93;;
46230;SDS011;31949;51.404;-0.038;2023-07-31T04:35:51;1.15;;;0.80;;
46230;SDS011;31949;51.404;-0.038;2023-07-31T04:38:22;0.70;;;0.70;;
46230;SDS011;31949;51.404;-0.038;2023-07-31T04:40:49;2.22;;;0.73;;
46230;SDS011;31949;51.404;-0.038;2023-07-31T04:43:16;0.70;;;0.70;;
46230;SDS011;31949;51.404;-0.038;2023-07-31T04:45:46;0.88;;;0.57;;
46230;SDS011;31949;51.404;-0.038;2023-07-31T04:48:14;0.80;;;0.50;;
46230;SDS011;31949;51.404;-0.038;2023-07-31T04:50:41;1.58;;;0.77;;
46230;SDS011;31949;51.404;-0.038;2023-07-31T04:53:09;1.15;;;0.63;;
46230;SDS011;31949;51.404;-0.038;2023-07-31T04:55:36;1.30;;;0.65;;
46230;SDS011;31949;51.404;-0.038;2023-07-31T04:58:03;0.70;;;0.63;;
46230;SDS011;31949;51.404;-0.038;2023-07-31T05:00:30;3.13;;;1.00;;
46230;SDS011;31949;51.404;-0.038;2023-07-31T05:02:58;2.38;;;0.70;;
46230;SDS011;31949;51.404;-0.038;2023-07-31T05:05:25;1.27;;;0.75;;
46230;SDS011;31949;51.404;-0.038;2023-07-31T05:07:52;3.17;;;1.20;;
46230;SDS011;31949;51.404;-0.038;2023-07-31T05:10:20;1.58;;;0.60;;
46230;SDS011;31949;51.404;-0.038;2023-07-31T05:12:47;1.95;;;0.98;;
46230;SDS011;31949;51.404;-0.038;2023-07-31T05:15:14;1.05;;;0.60;;
46230;SDS011;31949;51.404;-0.038;2023-07-31T05:17:42;0.73;;;0.70;;
46230;SDS011;31949;51.404;-0.038;2023-07-31T05:20:09;2.60;;;0.93;;
46230;SDS011;31949;51.404;-0.038;2023-07-31T05:22:37;3.33;;;1.15;;
46230;SDS011;31949;51.404;-0.038;2023-07-31T05:25:04;2.30;;;1.30;;
46230;SDS011;31949;51.404;-0.038;2023-07-31T05:27:32;2.17;;;0.85;;
46230;SDS011;31949;51.404;-0.038;2023-07-31T05:29:59;1.90;;;1.02;;
46230;SDS011;31949;51.404;-0.038;2023-07-31T05:32:27;0.85;;;0.70;;
46230;SDS011;31949;51.404;-0.038;2023-07-31T05:34:54;1.50;;;0.70;;
46230;SDS011;31949;51.404;-0.038;2023-07-31T05:37:22;3.92;;;0.90;;
46230;SDS011;31949;51.404;-0.038;2023-07-31T05:39:49;3.38;;;0.90;;
46230;SDS011;31949;51.404;-0.038;2023-07-31T05:42:17;2.28;;;1.10;;
46230;SDS011;31949;51.404;-0.038;2023-07-31T05:44:44;1.42;;;0.70;;
46230;SDS011;31949;51.404;-0.038;2023-07-31T05:47:11;2.05;;;0.85;;
46230;SDS011;31949;51.404;-0.038;2023-07-31T05:49:39;2.45;;;1.08;;
46230;SDS011;31949;51.404;-0.038;2023-07-31T05:52:06;2.25;;;1.35;;
46230;SDS011;31949;51.404;-0.038;2023-07-31T05:54:36;1.27;;;0.90;;
46230;SDS011;31949;51.404;-0.038;2023-07-31T05:57:04;2.17;;;1.08;;
46230;SDS011;31949;51.404;-0.038;2023-07-31T05:59:31;2.92;;;1.00;;
46230;SDS011;31949;51.404;-0.038;2023-07-31T06:01:59;2.58;;;0.90;;
46230;SDS011;31949;51.404;-0.038;2023-07-31T06:04:26;3.92;;;0.90;;
46230;SDS011;31949;51.404;-0.038;2023-07-31T06:06:55;1.40;;;1.00;;
46230;SDS011;31949;51.404;-0.038;2023-07-31T06:09:22;1.58;;;1.00;;
46230;SDS011;31949;51.404;-0.038;2023-07-31T06:11:49;2.10;;;1.05;;
46230;SDS011;31949;51.404;-0.038;2023-07-31T06:14:17;0.70;;;0.70;;
46230;SDS011;31949;51.404;-0.038;2023-07-31T06:16:44;3.83;;;1.15;;
46230;SDS011;31949;51.404;-0.038;2023-07-31T06:19:12;1.98;;;1.15;;
46230;SDS011;31949;51.404;-0.038;2023-07-31T06:21:39;2.47;;;1.00;;
46230;SDS011;31949;51.404;-0.038;2023-07-31T06:24:08;1.88;;;1.20;;
46230;SDS011;31949;51.404;-0.038;2023-07-31T06:26:36;1.67;;;1.15;;
46230;SDS011;31949;51.404;-0.038;2023-07-31T06:29:03;1.95;;;0.85;;
46230;SDS011;31949;51.404;-0.038;2023-07-31T06:31:31;1.48;;;0.90;;
46230;SDS011;31949;51.404;-0.038;2023-07-31T06:33:58;6.22;;;1.80;;
46230;SDS011;31949;51.404;-0.038;2023-07-31T06:36:25;1.58;;;1.13;;
46230;SDS011;31949;51.404;-0.038;2023-07-31T06:38:53;3.33;;;1.23;;
46230;SDS011;31949;51.404;-0.038;2023-07-31T06:41:20;4.03;;;1.48;;
46230;SDS011;31949;51.404;-0.038;2023-07-31T06:43:47;5.40;;;1.58;;
46230;SDS011;31949;51.404;-0.038;2023-07-31T06:46:15;2.25;;;0.98;;
46230;SDS011;31949;51.404;-0.038;2023-07-31T06:48:42;4.75;;;1.60;;
46230;SDS011;31949;51.404;-0.038;2023-07-31T06:51:09;4.07;;;1.20;;
46230;SDS011;31949;51.404;-0.038;2023-07-31T06:53:36;2.90;;;1.08;;
46230;SDS011;31949;51.404;-0.038;2023-07-31T06:56:03;2.60;;;0.70;;
46230;SDS011;31949;51.404;-0.038;2023-07-31T06:58:31;5.15;;;1.33;;
46230;SDS011;31949;51.404;-0.038;2023-07-31T07:00:58;2.63;;;1.15;;
46230;SDS011;31949;51.404;-0.038;2023-07-31T07:03:25;2.83;;;1.70;;
46230;SDS011;31949;51.404;-0.038;2023-07-31T07:05:53;2.42;;;1.10;;
46230;SDS011;31949;51.404;-0.038;2023-07-31T07:08:20;2.75;;;1.20;;
46230;SDS011;31949;51.404;-0.038;2023-07-31T07:10:48;2.88;;;1.33;;
46230;SDS011;31949;51.404;-0.038;2023-07-31T07:13:16;1.33;;;1.00;;
46230;SDS011;31949;51.404;-0.038;2023-07-31T07:15:48;3.80;;;1.15;;
46230;SDS011;31949;51.404;-0.038;2023-07-31T07:18:16;1.17;;;0.90;;
46230;SDS011;31949;51.404;-0.038;2023-07-31T07:20:47;2.28;;;0.80;;
46230;SDS011;31949;51.404;-0.038;2023-07-31T07:23:18;2.85;;;1.05;;
46230;SDS011;31949;51.404;-0.038;2023-07-31T07:25:47;2.15;;;1.02;;
46230;SDS011;31949;51.404;-0.038;2023-07-31T07:28:14;2.40;;;0.85;;
46230;SDS011;31949;51.404;-0.038;2023-07-31T07:30:41;4.18;;;1.33;;
46230;SDS011;31949;51.404;-0.038;2023-07-31T07:33:09;1.63;;;0.80;;
46230;SDS011;31949;51.404;-0.038;2023-07-31T07:35:36;2.30;;;1.00;;
46230;SDS011;31949;51.404;-0.038;2023-07-31T07:38:04;5.13;;;1.63;;
46230;SDS011;31949;51.404;-0.038;2023-07-31T07:40:31;1.88;;;1.15;;
46230;SDS011;31949;51.404;-0.038;2023-07-31T07:42:58;2.88;;;1.00;;
46230;SDS011;31949;51.404;-0.038;2023-07-31T07:45:26;2.17;;;1.20;;
46230;SDS011;31949;51.404;-0.038;2023-07-31T07:47:54;2.95;;;1.42;;
46230;SDS011;31949;51.404;-0.038;2023-07-31T07:50:22;2.90;;;1.10;;
46230;SDS011;31949;51.404;-0.038;2023-07-31T07:52:49;2.83;;;1.10;;
46230;SDS011;31949;51.404;-0.038;2023-07-31T07:55:16;2.65;;;1.20;;
46230;SDS011;31949;51.404;-0.038;2023-07-31T07:57:43;4.55;;;1.15;;
46230;SDS011;31949;51.404;-0.038;2023-07-31T08:00:12;2.05;;;0.90;;
46230;SDS011;31949;51.404;-0.038;2023-07-31T08:02:40;2.53;;;1.00;;
46230;SDS011;31949;51.404;-0.038;2023-07-31T08:05:07;1.95;;;0.85;;
46230;SDS011;31949;51.404;-0.038;2023-07-31T08:07:35;3.70;;;1.10;;
46230;SDS011;31949;51.404;-0.038;2023-07-31T08:10:02;5.25;;;1.63;;
46230;SDS011;31949;51.404;-0.038;2023-07-31T08:12:30;1.65;;;1.33;;
46230;SDS011;31949;51.404;-0.038;2023-07-31T08:14:57;2.35;;;0.85;;
46230;SDS011;31949;51.404;-0.038;2023-07-31T08:17:27;2.40;;;1.30;;
46230;SDS011;31949;51.404;-0.038;2023-07-31T08:19:54;1.65;;;1.00;;
46230;SDS011;31949;51.404;-0.038;2023-07-31T08:22:25;1.58;;;0.80;;
46230;SDS011;31949;51.404;-0.038;2023-07-31T08:24:52;1.17;;;0.80;;
46230;SDS011;31949;51.404;-0.038;2023-07-31T08:27:20;1.58;;;0.93;;
46230;SDS011;31949;51.404;-0.038;2023-07-31T08:29:47;4.95;;;1.20;;
46230;SDS011;31949;51.404;-0.038;2023-07-31T08:32:15;2.85;;;1.10;;
46230;SDS011;31949;51.404;-0.038;2023-07-31T08:34:42;4.30;;;1.33;;
46230;SDS011;31949;51.404;-0.038;2023-07-31T08:37:09;2.17;;;1.17;;
46230;SDS011;31949;51.404;-0.038;2023-07-31T08:39:38;2.58;;;1.38;;
46230;SDS011;31949;51.404;-0.038;2023-07-31T08:42:09;4.55;;;1.50;;
46230;SDS011;31949;51.404;-0.038;2023-07-31T08:44:36;2.03;;;1.17;;
46230;SDS011;31949;51.404;-0.038;2023-07-31T08:47:05;2.08;;;1.23;;
46230;SDS011;31949;51.404;-0.038;2023-07-31T08:49:33;2.10;;;1.23;;
46230;SDS011;31949;51.404;-0.038;2023-07-31T08:52:01;5.55;;;1.40;;
46230;SDS011;31949;51.404;-0.038;2023-07-31T08:54:29;3.35;;;1.52;;
46230;SDS011;31949;51.404;-0.038;2023-07-31T08:56:57;4.43;;;1.50;;
46230;SDS011;31949;51.404;-0.038;2023-07-31T08:59:29;3.58;;;1.50;;
46230;SDS011;31949;51.404;-0.038;2023-07-31T09:01:59;1.13;;;1.02;;
46230;SDS011;31949;51.404;-0.038;2023-07-31T09:04:32;3.15;;;1.05;;
46230;SDS011;31949;51.404;-0.038;2023-07-31T09:07:01;1.80;;;0.90;;
46230;SDS011;31949;51.404;-0.038;2023-07-31T09:09:31;1.42;;;0.95;;
46230;SDS011;31949;51.404;-0.038;2023-07-31T09:11:58;1.77;;;1.10;;
46230;SDS011;31949;51.404;-0.038;2023-07-31T09:14:26;2.85;;;1.20;;
46230;SDS011;31949;51.404;-0.038;2023-07-31T09:16:56;2.25;;;1.08;;
46230;SDS011;31949;51.404;-0.038;2023-07-31T09:19:27;1.63;;;1.38;;
46230;SDS011;31949;51.404;-0.038;2023-07-31T09:22:06;0.90;;;0.80;;
46230;SDS011;31949;51.404;-0.038;2023-07-31T09:24:34;3.08;;;1.73;;
46230;SDS011;31949;51.404;-0.038;2023-07-31T09:27:01;1.60;;;1.38;;
46230;SDS011;31949;51.404;-0.038;2023-07-31T09:29:29;1.50;;;0.98;;
46230;SDS011;31949;51.404;-0.038;2023-07-31T09:31:56;2.00;;;1.08;;
46230;SDS011;31949;51.404;-0.038;2023-07-31T09:34:59;2.00;;;1.05;;
46230;SDS011;31949;51.404;-0.038;2023-07-31T09:37:19;1.00;;;0.90;;
46230;SDS011;31949;51.404;-0.038;2023-07-31T09:39:46;2.65;;;1.02;;
46230;SDS011;31949;51.404;-0.038;2023-07-31T09:42:14;3.15;;;1.20;;
46230;SDS011;31949;51.404;-0.038;2023-07-31T09:44:51;2.55;;;0.90;;
46230;SDS011;31949;51.404;-0.038;2023-07-31T09:47:22;1.45;;;1.23;;
46230;SDS011;31949;51.404;-0.038;2023-07-31T09:49:52;0.68;;;0.68;;
46230;SDS011;31949;51.404;-0.038;2023-07-31T09:52:19;2.40;;;0.70;;
46230;SDS011;31949;51.404;-0.038;2023-07-31T09:54:47;1.02;;;0.60;;
46230;SDS011;31949;51.404;-0.038;2023-07-31T09:57:15;0.80;;;0.70;;
46230;SDS011;31949;51.404;-0.038;2023-07-31T09:59:46;1.80;;;0.50;;
46230;SDS011;31949;51.404;-0.038;2023-07-31T10:02:17;1.00;;;0.70;;
46230;SDS011;31949;51.404;-0.038;2023-07-31T10:04:49;1.08;;;0.80;;
46230;SDS011;31949;51.404;-0.038;2023-07-31T10:07:17;2.33;;;0.65;;
46230;SDS011;31949;51.404;-0.038;2023-07-31T10:09:47;1.15;;;0.60;;
46230;SDS011;31949;51.404;-0.038;2023-07-31T10:12:14;2.67;;;0.60;;
46230;SDS011;31949;51.404;-0.038;2023-07-31T10:14:47;1.42;;;0.70;;
46230;SDS011;31949;51.404;-0.038;2023-07-31T10:17:14;2.80;;;1.02;;
46230;SDS011;31949;51.404;-0.038;2023-07-31T10:19:44;2.65;;;0.90;;
46230;SDS011;31949;51.404;-0.038;2023-07-31T10:22:12;1.45;;;0.70;;
46230;SDS011;31949;51.404;-0.038;2023-07-31T10:24:44;2.25;;;1.45;;
46230;SDS011;31949;51.404;-0.038;2023-07-31T10:27:13;1.88;;;0.75;;
46230;SDS011;31949;51.404;-0.038;2023-07-31T10:29:41;1.23;;;0.90;;
46230;SDS011;31949;51.404;-0.038;2023-07-31T10:32:10;1.95;;;1.15;;
46230;SDS011;31949;51.404;-0.038;2023-07-31T10:34:39;2.47;;;1.10;;
46230;SDS011;31949;51.404;-0.038;2023-07-31T10:37:20;1.98;;;0.95;;
46230;SDS011;31949;51.404;-0.038;2023-07-31T10:39:56;1.38;;;0.93;;
46230;SDS011;31949;51.404;-0.038;2023-07-31T10:42:28;1.95;;;1.00;;
46230;SDS011;31949;51.404;-0.038;2023-07-31T10:45:24;1.05;;;0.98;;
46230;SDS011;31949;51.404;-0.038;2023-07-31T10:47:58;1.02;;;0.80;;
46230;SDS011;31949;51.404;-0.038;2023-07-31T10:50:30;3.58;;;1.73;;
46230;SDS011;31949;51.404;-0.038;2023-07-31T10:53:01;1.88;;;1.20;;
46230;SDS011;31949;51.404;-0.038;2023-07-31T10:55:31;2.72;;;1.02;;
46230;SDS011;31949;51.404;-0.038;2023-07-31T10:58:08;2.20;;;1.10;;
46230;SDS011;31949;51.404;-0.038;2023-07-31T11:00:38;2.00;;;1.13;;
46230;SDS011;31949;51.404;-0.038;2023-07-31T11:03:07;2.22;;;1.05;;
46230;SDS011;31949;51.404;-0.038;2023-07-31T11:08:13;3.97;;;2.72;;
46230;SDS011;31949;51.404;-0.038;2023-07-31T11:13:30;1.55;;;0.95;;
46230;SDS011;31949;51.404;-0.038;2023-07-31T11:15:58;1.55;;;0.82;;
46230;SDS011;31949;51.404;-0.038;2023-07-31T11:18:26;2.97;;;1.00;;
46230;SDS011;31949;51.404;-0.038;2023-07-31T11:20:54;1.15;;;1.05;;
46230;SDS011;31949;51.404;-0.038;2023-07-31T11:23:21;2.63;;;0.98;;
46230;SDS011;31949;51.404;-0.038;2023-07-31T11:25:49;2.58;;;1.30;;
46230;SDS011;31949;51.404;-0.038;2023-07-31T11:28:17;4.60;;;2.00;;
46230;SDS011;31949;51.404;-0.038;2023-07-31T11:30:46;2.20;;;0.82;;
46230;SDS011;31949;51.404;-0.038;2023-07-31T11:33:13;1.92;;;1.20;;
46230;SDS011;31949;51.404;-0.038;2023-07-31T11:35:46;1.55;;;1.33;;
46230;SDS011;31949;51.404;-0.038;2023-07-31T11:38:28;1.38;;;1.27;;
46230;SDS011;31949;51.404;-0.038;2023-07-31T11:40:57;3.20;;;1.17;;
46230;SDS011;31949;51.404;-0.038;2023-07-31T11:43:33;2.55;;;1.65;;
46230;SDS011;31949;51.404;-0.038;2023-07-31T11:46:02;2.75;;;1.88;;
46230;SDS011;31949;51.404;-0.038;2023-07-31T11:48:31;4.07;;;1.70;;
46230;SDS011;31949;51.404;-0.038;2023-07-31T11:51:02;2.55;;;1.52;;
46230;SDS011;31949;51.404;-0.038;2023-07-31T11:53:35;4.00;;;2.20;;
46230;SDS011;31949;51.404;-0.038;2023-07-31T11:56:05;2.60;;;1.65;;
46230;SDS011;31949;51.404;-0.038;2023-07-31T11:58:34;3.88;;;1.80;;
46230;SDS011;31949;51.404;-0.038;2023-07-31T12:01:02;2.92;;;2.17;;
46230;SDS011;31949;51.404;-0.038;2023-07-31T12:03:31;2.70;;;1.52;;
46230;SDS011;31949;51.404;-0.038;2023-07-31T12:05:59;3.05;;;1.63;;
46230;SDS011;31949;51.404;-0.038;2023-07-31T12:08:26;4.22;;;1.90;;
46230;SDS011;31949;51.404;-0.038;2023-07-31T12:10:54;2.17;;;1.70;;
46230;SDS011;31949;51.404;-0.038;2023-07-31T12:13:32;3.35;;;2.05;;
46230;SDS011;31949;51.404;-0.038;2023-07-31T12:16:00;3.72;;;1.88;;
46230;SDS011;31949;51.404;-0.038;2023-07-31T12:18:33;3.88;;;1.83;;
46230;SDS011;31949;51.404;-0.038;2023-07-31T12:21:04;4.13;;;1.67;;
46230;SDS011;31949;51.404;-0.038;2023-07-31T12:23:33;4.35;;;1.83;;
46230;SDS011;31949;51.404;-0.038;2023-07-31T12:26:12;3.17;;;1.30;;
46230;SDS011;31949;51.404;-0.038;2023-07-31T12:28:41;3.08;;;1.73;;
46230;SDS011;31949;51.404;-0.038;2023-07-31T12:31:10;3.85;;;2.08;;
46230;SDS011;31949;51.404;-0.038;2023-07-31T12:33:39;3.85;;;2.15;;
46230;SDS011;31949;51.404;-0.038;2023-07-31T12:36:09;6.07;;;2.53;;
46230;SDS011;31949;51.404;-0.038;2023-07-31T12:38:44;2.65;;;1.80;;
46230;SDS011;31949;51.404;-0.038;2023-07-31T12:41:11;2.30;;;1.77;;
46230;SDS011;31949;51.404;-0.038;2023-07-31T12:43:40;3.85;;;1.60;;
46230;SDS011;31949;51.404;-0.038;2023-07-31T12:46:08;5.50;;;1.65;;
46230;SDS011;31949;51.404;-0.038;2023-07-31T12:48:36;2.67;;;1.88;;
46230;SDS011;31949;51.404;-0.038;2023-07-31T12:51:04;3.13;;;1.55;;
46230;SDS011;31949;51.404;-0.038;2023-07-31T12:53:33;5.53;;;2.10;;
46230;SDS011;31949;51.404;-0.038;2023-07-31T12:56:01;6.15;;;1.70;;
46230;SDS011;31949;51.404;-0.038;2023-07-31T12:58:29;3.58;;;2.22;;
46230;SDS011;31949;51.404;-0.038;2023-07-31T13:00:56;2.45;;;1.98;;
46230;SDS011;31949;51.404;-0.038;2023-07-31T13:03:23;5.00;;;2.05;;
46230;SDS011;31949;51.404;-0.038;2023-07-31T13:05:51;4.78;;;2.30;;
46230;SDS011;31949;51.404;-0.038;2023-07-31T13:08:19;3.15;;;1.83;;
46230;SDS011;31949;51.404;-0.038;2023-07-31T13:10:46;5.97;;;2.55;;
46230;SDS011;31949;51.404;-0.038;2023-07-31T13:13:14;6.30;;;2.53;;
46230;SDS011;31949;51.404;-0.038;2023-07-31T13:15:41;7.28;;;3.17;;
46230;SDS011;31949;51.404;-0.038;2023-07-31T13:18:09;5.47;;;2.47;;
46230;SDS011;31949;51.404;-0.038;2023-07-31T13:20:42;4.13;;;2.92;;
46230;SDS011;31949;51.404;-0.038;2023-07-31T13:23:10;5.32;;;2.70;;
46230;SDS011;31949;51.404;-0.038;2023-07-31T13:25:37;3.42;;;2.47;;
46230;SDS011;31949;51.404;-0.038;2023-07-31T13:28:04;4.18;;;2.85;;
46230;SDS011;31949;51.404;-0.038;2023-07-31T13:30:31;5.78;;;2.70;;
46230;SDS011;31949;51.404;-0.038;2023-07-31T13:32:59;4.25;;;2.70;;
46230;SDS011;31949;51.404;-0.038;2023-07-31T13:35:26;8.38;;;3.35;;
46230;SDS011;31949;51.404;-0.038;2023-07-31T13:37:54;5.22;;;3.15;;
46230;SDS011;31949;51.404;-0.038;2023-07-31T13:40:21;6.03;;;3.22;;
46230;SDS011;31949;51.404;-0.038;2023-07-31T13:42:49;5.40;;;3.13;;
46230;SDS011;31949;51.404;-0.038;2023-07-31T13:45:16;7.43;;;4.00;;
46230;SDS011;31949;51.404;-0.038;2023-07-31T13:47:43;6.72;;;2.80;;
46230;SDS011;31949;51.404;-0.038;2023-07-31T13:50:10;7.60;;;3.30;;
46230;SDS011;31949;51.404;-0.038;2023-07-31T13:52:37;8.10;;;4.32;;
46230;SDS011;31949;51.404;-0.038;2023-07-31T13:55:05;9.70;;;3.22;;
46230;SDS011;31949;51.404;-0.038;2023-07-31T13:57:32;6.20;;;3.05;;
46230;SDS011;31949;51.404;-0.038;2023-07-31T14:00:00;6.72;;;3.50;;
46230;SDS011;31949;51.404;-0.038;2023-07-31T14:02:30;8.23;;;2.97;;
46230;SDS011;31949;51.404;-0.038;2023-07-31T14:04:58;8.05;;;4.18;;
46230;SDS011;31949;51.404;-0.038;2023-07-31T14:07:25;11.15;;;4.65;;
46230;SDS011;31949;51.404;-0.038;2023-07-31T14:09:52;8.93;;;3.97;;
46230;SDS011;31949;51.404;-0.038;2023-07-31T14:12:19;8.23;;;3.97;;
46230;SDS011;31949;51.404;-0.038;2023-07-31T14:15:07;6.40;;;3.97;;
46230;SDS011;31949;51.404;-0.038;2023-07-31T14:17:34;8.45;;;4.30;;
46230;SDS011;31949;51.404;-0.038;2023-07-31T14:20:02;7.65;;;3.55;;
46230;SDS011;31949;51.404;-0.038;2023-07-31T14:22:31;7.22;;;3.83;;
46230;SDS011;31949;51.404;-0.038;2023-07-31T14:25:00;9.32;;;4.45;;
46230;SDS011;31949;51.404;-0.038;2023-07-31T14:27:28;12.00;;;4.50;;
46230;SDS011;31949;51.404;-0.038;2023-07-31T14:29:55;8.50;;;4.15;;
46230;SDS011;31949;51.404;-0.038;2023-07-31T14:32:23;6.15;;;3.95;;
46230;SDS011;31949;51.404;-0.038;2023-07-31T14:34:52;7.28;;;3.45;;
46230;SDS011;31949;51.404;-0.038;2023-07-31T14:37:20;8.02;;;3.97;;
46230;SDS011;31949;51.404;-0.038;2023-07-31T14:39:47;4.90;;;2.83;;
46230;SDS011;31949;51.404;-0.038;2023-07-31T14:42:16;5.88;;;3.53;;
46230;SDS011;31949;51.404;-0.038;2023-07-31T14:44:44;8.15;;;4.15;;
46230;SDS011;31949;51.404;-0.038;2023-07-31T14:47:13;6.28;;;3.50;;
46230;SDS011;31949;51.404;-0.038;2023-07-31T14:49:41;7.68;;;3.63;;
46230;SDS011;31949;51.404;-0.038;2023-07-31T14:52:08;7.13;;;4.55;;